Time;durP1;ratioP1;P1;durP2;ratioP2;P2;SDS_P1;SDS_P2;PMS_P1;PMS_P2;Temp;Humidity;BMP_temperature;BMP_pressure;BME280_temperature;BME280_humidity;BME280_pressure;Samples;Min_cycle;Max_cycle;Signal;HPM_P1;HPM_P2
2023/05/12 00:00:47;;;;;;;5.28;2.03;;;;;;;;;;4963170;28;93741;-78
2023/05/12 00:03:14;;;;;;;5.45;2.10;;;;;;;;;;4962111;28;94911;-78
2023/05/12 00:05:40;;;;;;;5.30;2.00;;;;;;;;;;4951218;28;95702;-78
2023/05/12 00:08:07;;;;;;;4.45;1.85;;;;;;;;;;4944711;28;93056;-78
2023/05/12 00:10:34;;;;;;;8.40;2.10;;;;;;;;;;4945923;28;92946;-78
2023/05/12 00:13:00;;;;;;;;;;;;;;;;;;4960502;28;93002;-78
2023/05/12 00:15:27;;;;;;;4.72;1.80;;;;;;;;;;4946690;28;93883;-78
2023/05/12 00:17:54;;;;;;;5.70;2.15;;;;;;;;;;4938961;28;95526;-78
2023/05/12 00:20:20;;;;;;;4.90;1.88;;;;;;;;;;4942817;28;94980;-78
2023/05/12 00:22:47;;;;;;;4.43;1.73;;;;;;;;;;4943412;28;92978;-76
2023/05/12 00:25:13;;;;;;;5.25;1.70;;;;;;;;;;4944555;28;92824;-76
2023/05/12 00:27:40;;;;;;;4.80;1.92;;;;;;;;;;4943359;28;95405;-76
2023/05/12 00:30:07;;;;;;;2.78;1.60;;;;;;;;;;4946333;28;92784;-76
2023/05/12 00:32:33;;;;;;;5.35;1.92;;;;;;;;;;4945006;28;93326;-76
2023/05/12 00:35:00;;;;;;;4.55;1.70;;;;;;;;;;4947513;28;93027;-76
2023/05/12 00:37:27;;;;;;;4.78;1.90;;;;;;;;;;4944679;28;93537;-76
2023/05/12 00:39:54;;;;;;;4.60;1.70;;;;;;;;;;4939527;28;94943;-77
2023/05/12 00:42:20;;;;;;;3.70;1.60;;;;;;;;;;4942388;28;92696;-76
2023/05/12 00:44:47;;;;;;;4.25;1.83;;;;;;;;;;4939509;28;95078;-76
2023/05/12 00:47:14;;;;;;;3.60;1.67;;;;;;;;;;4945000;28;93319;-76
2023/05/12 00:49:41;;;;;;;4.63;1.70;;;;;;;;;;4944383;28;92536;-76
2023/05/12 00:52:08;;;;;;;4.03;1.70;;;;;;;;;;4944506;28;95220;-76
2023/05/12 00:54:35;;;;;;;4.22;1.75;;;;;;;;;;4941144;28;93340;-76
2023/05/12 00:57:02;;;;;;;3.22;1.60;;;;;;;;;;4929805;28;92592;-76
2023/05/12 00:59:29;;;;;;;3.30;1.55;;;;;;;;;;4944070;28;94340;-76
2023/05/12 01:01:56;;;;;;;3.28;1.63;;;;;;;;;;4940415;28;92574;-77
2023/05/12 01:04:23;;;;;;;;;;;;;;;;;;4941936;28;94988;-78
2023/05/12 01:06:55;;;;;;;4.07;1.70;;;;;;;;;;4943449;28;95835;-78
2023/05/12 01:09:21;;;;;;;2.90;1.35;;;;;;;;;;4945998;28;92068;-78
2023/05/12 01:11:48;;;;;;;2.97;1.38;;;;;;;;;;4942875;28;95046;-79
2023/05/12 01:14:16;;;;;;;3.97;1.52;;;;;;;;;;4943061;28;95791;-79
2023/05/12 01:16:50;;;;;;;3.65;1.50;;;;;;;;;;4938488;28;94904;-78
2023/05/12 01:19:37;;;;;;;3.80;1.50;;;;;;;;;;4939061;28;96153;-77
2023/05/12 01:22:04;;;;;;;2.15;1.23;;;;;;;;;;4940941;28;93909;-77
2023/05/12 01:24:33;;;;;;;3.03;1.50;;;;;;;;;;4935513;28;95830;-77
2023/05/12 01:27:00;;;;;;;3.60;1.40;;;;;;;;;;4940785;28;95986;-77
2023/05/12 01:29:27;;;;;;;3.15;1.58;;;;;;;;;;4946227;28;92520;-76
2023/05/12 01:31:54;;;;;;;3.90;1.55;;;;;;;;;;4942287;28;92803;-79
2023/05/12 01:34:20;;;;;;;2.33;1.42;;;;;;;;;;4942678;28;95769;-79
2023/05/12 01:36:49;;;;;;;2.22;1.30;;;;;;;;;;4940866;28;94602;-76
2023/05/12 01:39:16;;;;;;;2.53;1.50;;;;;;;;;;4954444;28;95492;-76
2023/05/12 01:41:42;;;;;;;2.38;1.30;;;;;;;;;;4959615;28;97968;-77
2023/05/12 01:44:09;;;;;;;4.75;1.50;;;;;;;;;;4962269;28;97891;-77
2023/05/12 01:46:37;;;;;;;3.20;1.40;;;;;;;;;;4959272;28;93050;-77
2023/05/12 01:49:03;;;;;;;3.03;1.40;;;;;;;;;;4965499;28;92826;-80
2023/05/12 01:51:30;;;;;;;3.70;1.60;;;;;;;;;;4937539;28;95823;-79
2023/05/12 01:53:57;;;;;;;3.13;1.40;;;;;;;;;;4955367;28;94820;-80
2023/05/12 01:56:28;;;;;;;1.73;1.15;;;;;;;;;;4955027;28;92918;-80
2023/05/12 01:58:57;;;;;;;3.10;1.45;;;;;;;;;;4950445;28;95389;-77
2023/05/12 02:01:27;;;;;;;5.13;1.50;;;;;;;;;;4956605;28;92906;-77
2023/05/12 02:03:55;;;;;;;2.42;1.23;;;;;;;;;;4960570;28;92524;-79
2023/05/12 02:06:23;;;;;;;2.83;1.52;;;;;;;;;;4943409;28;98491;-76
2023/05/12 02:08:50;;;;;;;2.50;1.20;;;;;;;;;;4947127;28;94644;-76
2023/05/12 02:11:17;;;;;;;3.08;1.40;;;;;;;;;;4923588;28;94876;-77
2023/05/12 02:13:43;;;;;;;2.25;1.20;;;;;;;;;;4944514;28;94444;-77
2023/05/12 02:16:10;;;;;;;2.92;1.30;;;;;;;;;;4943111;28;92963;-79
2023/05/12 02:18:37;;;;;;;6.78;1.60;;;;;;;;;;4948432;28;94754;-80
2023/05/12 02:21:05;;;;;;;5.88;1.35;;;;;;;;;;4940221;28;95924;-76
2023/05/12 02:23:31;;;;;;;3.50;1.23;;;;;;;;;;4944686;28;91845;-77
2023/05/12 02:25:58;;;;;;;3.60;1.10;;;;;;;;;;4949803;28;93097;-76
2023/05/12 02:28:24;;;;;;;4.63;1.20;;;;;;;;;;4948267;28;92523;-79
2023/05/12 02:30:51;;;;;;;3.15;1.00;;;;;;;;;;4942587;28;95215;-76
2023/05/12 02:33:19;;;;;;;2.85;1.25;;;;;;;;;;4945370;28;94361;-77
2023/05/12 02:35:45;;;;;;;;;;;;;;;;;;4945048;28;92597;-77
2023/05/12 02:38:12;;;;;;;2.75;1.30;;;;;;;;;;4947198;28;95132;-78
2023/05/12 02:40:39;;;;;;;2.88;1.05;;;;;;;;;;4943024;28;92837;-78
2023/05/12 02:43:06;;;;;;;2.90;1.52;;;;;;;;;;4945743;28;92785;-78
2023/05/12 02:45:33;;;;;;;2.20;1.00;;;;;;;;;;4945885;28;95187;-77
2023/05/12 02:48:00;;;;;;;3.75;1.17;;;;;;;;;;4945713;28;93928;-77
2023/05/12 02:50:26;;;;;;;4.15;1.10;;;;;;;;;;4943054;28;95242;-77
2023/05/12 02:52:53;;;;;;;2.60;0.98;;;;;;;;;;4930015;28;97134;-76
2023/05/12 02:55:19;;;;;;;2.55;1.20;;;;;;;;;;4940239;28;98101;-77
2023/05/12 02:57:46;;;;;;;1.80;0.90;;;;;;;;;;4948165;28;95590;-78
2023/05/12 03:00:13;;;;;;;1.65;0.95;;;;;;;;;;4945336;28;93578;-76
2023/05/12 03:02:39;;;;;;;1.67;1.00;;;;;;;;;;4943403;28;93271;-77
2023/05/12 03:05:07;;;;;;;3.28;1.40;;;;;;;;;;4947068;28;93161;-77
2023/05/12 03:07:34;;;;;;;1.60;0.95;;;;;;;;;;4941999;28;94564;-77
2023/05/12 03:10:01;;;;;;;2.38;1.00;;;;;;;;;;4943359;28;93545;-77
2023/05/12 03:12:29;;;;;;;2.67;1.10;;;;;;;;;;4943845;28;95557;-77
2023/05/12 03:14:56;;;;;;;2.67;1.00;;;;;;;;;;4945220;28;92475;-78
2023/05/12 03:17:24;;;;;;;2.70;1.20;;;;;;;;;;4940593;28;94282;-77
2023/05/12 03:19:51;;;;;;;3.63;1.27;;;;;;;;;;4941578;28;98081;-78
2023/05/12 03:22:17;;;;;;;2.00;1.00;;;;;;;;;;4943489;28;92539;-78
2023/05/12 03:24:45;;;;;;;3.00;1.23;;;;;;;;;;4942938;28;93995;-78
2023/05/12 03:27:11;;;;;;;2.63;1.20;;;;;;;;;;4944153;28;94201;-76
2023/05/12 03:29:38;;;;;;;4.15;1.42;;;;;;;;;;4948766;28;93498;-76
2023/05/12 03:32:05;;;;;;;3.58;1.70;;;;;;;;;;4923137;28;95526;-76
2023/05/12 03:34:31;;;;;;;5.85;1.83;;;;;;;;;;4941192;28;94404;-77
2023/05/12 03:36:58;;;;;;;5.00;1.55;;;;;;;;;;4942634;28;95501;-77
2023/05/12 03:39:24;;;;;;;4.00;1.40;;;;;;;;;;4936290;28;94508;-76
2023/05/12 03:41:51;;;;;;;4.22;1.63;;;;;;;;;;4942242;28;93462;-77
2023/05/12 03:44:17;;;;;;;3.67;1.55;;;;;;;;;;4944895;28;95473;-76
2023/05/12 03:46:44;;;;;;;4.35;1.40;;;;;;;;;;4941564;28;95501;-77
2023/05/12 03:49:11;;;;;;;3.55;1.40;;;;;;;;;;4928368;28;93303;-77
2023/05/12 03:51:38;;;;;;;4.75;1.80;;;;;;;;;;4944697;28;92942;-77
2023/05/12 03:54:04;;;;;;;3.63;1.52;;;;;;;;;;4944439;28;92617;-77
2023/05/12 03:56:31;;;;;;;5.00;1.90;;;;;;;;;;4942787;28;95725;-77
2023/05/12 03:59:00;;;;;;;5.07;2.22;;;;;;;;;;4947609;28;93165;-77
2023/05/12 04:01:27;;;;;;;4.50;1.85;;;;;;;;;;4956130;28;95472;-76
2023/05/12 04:03:53;;;;;;;4.72;1.88;;;;;;;;;;4961696;28;92801;-76
2023/05/12 04:06:20;;;;;;;4.90;1.80;;;;;;;;;;4945373;28;96224;-79
2023/05/12 04:08:47;;;;;;;6.57;2.55;;;;;;;;;;4943554;28;95146;-76
2023/05/12 04:11:13;;;;;;;4.00;1.50;;;;;;;;;;4945406;28;95858;-77
2023/05/12 04:13:40;;;;;;;6.32;2.08;;;;;;;;;;4942200;28;93378;-78
2023/05/12 04:16:07;;;;;;;8.32;2.85;;;;;;;;;;4944597;28;92433;-78
2023/05/12 04:18:35;;;;;;;8.52;2.58;;;;;;;;;;4942222;28;93297;-78
2023/05/12 04:21:02;;;;;;;5.80;2.20;;;;;;;;;;4941492;28;93238;-77
2023/05/12 04:23:29;;;;;;;7.13;2.17;;;;;;;;;;4945180;28;92773;-77
2023/05/12 04:25:56;;;;;;;5.40;2.20;;;;;;;;;;4942442;28;92644;-77
2023/05/12 04:28:22;;;;;;;6.07;2.20;;;;;;;;;;4940802;28;95419;-78
2023/05/12 04:30:49;;;;;;;5.22;2.10;;;;;;;;;;4943018;28;97167;-78
2023/05/12 04:33:16;;;;;;;6.45;2.30;;;;;;;;;;4944597;28;98152;-78
2023/05/12 04:35:44;;;;;;;6.63;2.85;;;;;;;;;;4943271;28;97847;-78
2023/05/12 04:38:12;;;;;;;6.13;2.42;;;;;;;;;;4943103;28;95614;-76
2023/05/12 04:40:39;;;;;;;7.20;3.03;;;;;;;;;;4943826;28;92776;-77
2023/05/12 04:43:05;;;;;;;7.95;3.00;;;;;;;;;;4944171;28;94215;-78
2023/05/12 04:45:32;;;;;;;6.93;2.80;;;;;;;;;;4924708;28;95406;-77
2023/05/12 04:47:59;;;;;;;8.38;3.40;;;;;;;;;;4943019;28;92957;-77
2023/05/12 04:50:26;;;;;;;8.10;3.08;;;;;;;;;;4944571;28;94363;-78
2023/05/12 04:52:52;;;;;;;6.50;2.47;;;;;;;;;;4949187;28;93154;-77
2023/05/12 04:55:18;;;;;;;6.07;2.50;;;;;;;;;;4965685;28;93005;-78
2023/05/12 04:57:45;;;;;;;7.38;3.08;;;;;;;;;;4961167;28;97499;-77
2023/05/12 05:00:12;;;;;;;8.80;3.13;;;;;;;;;;4960352;28;92719;-77
2023/05/12 05:02:40;;;;;;;7.43;2.80;;;;;;;;;;4961555;28;94330;-77
2023/05/12 05:05:07;;;;;;;7.18;2.92;;;;;;;;;;4952410;28;92561;-77
2023/05/12 05:07:34;;;;;;;6.80;2.80;;;;;;;;;;4948456;28;92492;-77
2023/05/12 05:10:00;;;;;;;7.70;3.00;;;;;;;;;;4944557;28;94838;-77
2023/05/12 05:12:28;;;;;;;6.40;2.70;;;;;;;;;;4940379;28;94381;-77
2023/05/12 05:14:55;;;;;;;6.35;2.53;;;;;;;;;;4942743;28;92149;-77
2023/05/12 05:17:21;;;;;;;7.50;2.75;;;;;;;;;;4947003;28;92791;-77
2023/05/12 05:19:48;;;;;;;6.65;2.92;;;;;;;;;;4947856;28;94134;-77
2023/05/12 05:22:26;;;;;;;7.43;3.10;;;;;;;;;;4948069;28;95194;-78
2023/05/12 05:24:52;;;;;;;8.95;3.20;;;;;;;;;;4952887;28;93724;-77
2023/05/12 05:27:19;;;;;;;8.05;3.22;;;;;;;;;;4953775;28;92556;-77
2023/05/12 05:29:46;;;;;;;10.60;3.40;;;;;;;;;;4938508;28;95075;-77
2023/05/12 05:32:12;;;;;;;8.63;3.00;;;;;;;;;;4955363;28;94218;-77
2023/05/12 05:34:39;;;;;;;7.88;3.40;;;;;;;;;;4953624;28;93227;-77
2023/05/12 05:37:05;;;;;;;8.23;3.30;;;;;;;;;;4954563;28;92659;-77
2023/05/12 05:39:32;;;;;;;7.75;2.97;;;;;;;;;;4961563;28;94819;-78
2023/05/12 05:41:58;;;;;;;7.93;3.60;;;;;;;;;;4959043;28;94815;-78
2023/05/12 05:44:25;;;;;;;8.00;3.25;;;;;;;;;;4950921;28;94591;-77
2023/05/12 05:46:52;;;;;;;8.50;3.65;;;;;;;;;;4951525;28;95189;-77
2023/05/12 05:49:19;;;;;;;7.90;3.40;;;;;;;;;;4956356;28;97462;-77
2023/05/12 05:51:46;;;;;;;8.50;3.40;;;;;;;;;;4947680;28;95262;-77
2023/05/12 05:54:13;;;;;;;8.27;3.38;;;;;;;;;;4958366;28;92775;-77
2023/05/12 05:56:40;;;;;;;7.45;3.08;;;;;;;;;;4945298;28;95462;-77
2023/05/12 05:59:06;;;;;;;8.10;3.33;;;;;;;;;;4947501;28;94118;-77
2023/05/12 06:01:33;;;;;;;8.10;3.33;;;;;;;;;;4948591;28;92470;-77
2023/05/12 06:03:59;;;;;;;10.98;4.43;;;;;;;;;;4944843;28;95445;-78
2023/05/12 06:06:27;;;;;;;15.00;4.65;;;;;;;;;;4943599;28;93376;-78
2023/05/12 06:08:54;;;;;;;12.05;5.13;;;;;;;;;;4944418;28;94598;-78
2023/05/12 06:11:21;;;;;;;13.55;6.18;;;;;;;;;;4939659;28;98289;-77
2023/05/12 06:13:48;;;;;;;13.93;6.88;;;;;;;;;;4947090;28;92524;-78
2023/05/12 06:16:14;;;;;;;12.57;5.53;;;;;;;;;;4944776;28;97734;-78
2023/05/12 06:18:41;;;;;;;12.05;6.15;;;;;;;;;;4941062;28;93265;-78
2023/05/12 06:21:08;;;;;;;13.35;7.00;;;;;;;;;;4945041;28;95224;-77
2023/05/12 06:23:35;;;;;;;15.63;7.10;;;;;;;;;;4945132;28;94115;-77
2023/05/12 06:26:01;;;;;;;13.93;7.10;;;;;;;;;;4943369;28;92999;-77
2023/05/12 06:28:28;;;;;;;15.82;8.25;;;;;;;;;;4937906;28;95566;-77
2023/05/12 06:30:55;;;;;;;14.35;7.75;;;;;;;;;;4943413;28;95527;-77
2023/05/12 06:33:21;;;;;;;13.73;7.18;;;;;;;;;;4944085;28;92906;-77
2023/05/12 06:35:48;;;;;;;;;;;;;;;;;;4929406;28;95431;-77
2023/05/12 06:38:15;;;;;;;14.65;7.63;;;;;;;;;;4946880;28;93033;-78
2023/05/12 06:40:43;;;;;;;18.38;8.73;;;;;;;;;;4944143;28;93425;-77
2023/05/12 06:43:09;;;;;;;19.58;9.23;;;;;;;;;;4948174;28;92988;-77
2023/05/12 06:45:36;;;;;;;15.90;8.23;;;;;;;;;;4944547;28;92944;-77
2023/05/12 06:48:04;;;;;;;15.48;8.30;;;;;;;;;;4944193;28;93013;-77
2023/05/12 06:50:31;;;;;;;17.02;8.63;;;;;;;;;;4943816;28;93741;-77
2023/05/12 06:52:58;;;;;;;17.45;8.70;;;;;;;;;;4944312;28;91719;-77
2023/05/12 06:55:24;;;;;;;18.33;9.40;;;;;;;;;;4944697;28;92989;-77
2023/05/12 06:57:54;;;;;;;20.50;7.65;;;;;;;;;;4944023;28;94328;-77
2023/05/12 07:00:21;;;;;;;13.73;7.47;;;;;;;;;;4943854;28;94972;-77
2023/05/12 07:02:48;;;;;;;12.65;6.32;;;;;;;;;;4945450;28;100110;-77
2023/05/12 07:05:14;;;;;;;15.63;8.18;;;;;;;;;;4949542;28;93501;-77
2023/05/12 07:07:41;;;;;;;14.25;8.30;;;;;;;;;;4944848;28;93300;-77
2023/05/12 07:10:08;;;;;;;13.75;7.55;;;;;;;;;;4935748;28;94363;-77
2023/05/12 07:12:35;;;;;;;14.75;8.60;;;;;;;;;;4946616;28;93044;-76
2023/05/12 07:15:01;;;;;;;16.15;8.43;;;;;;;;;;4943485;28;93078;-77
2023/05/12 07:17:28;;;;;;;13.73;7.88;;;;;;;;;;4945236;28;92892;-78
2023/05/12 07:19:55;;;;;;;15.18;7.55;;;;;;;;;;4943912;28;93024;-77
2023/05/12 07:22:22;;;;;;;13.13;6.72;;;;;;;;;;4945581;28;92826;-77
2023/05/12 07:24:48;;;;;;;;;;;;;;;;;;4942663;28;100612;-77
2023/05/12 07:27:15;;;;;;;15.35;8.15;;;;;;;;;;4956880;28;97718;-76
2023/05/12 07:29:41;;;;;;;14.57;7.43;;;;;;;;;;4964790;28;96419;-75
2023/05/12 07:32:08;;;;;;;13.13;6.72;;;;;;;;;;4955204;28;93438;-76
2023/05/12 07:34:34;;;;;;;13.85;6.50;;;;;;;;;;4964367;28;93361;-76
2023/05/12 07:37:02;;;;;;;11.25;5.90;;;;;;;;;;4959526;28;93241;-76
2023/05/12 07:39:31;;;;;;;14.90;7.78;;;;;;;;;;4965785;28;92646;-76
2023/05/12 07:41:58;;;;;;;13.93;7.25;;;;;;;;;;4964960;28;93267;-76
2023/05/12 07:44:25;;;;;;;12.88;6.60;;;;;;;;;;4963742;28;93568;-75
2023/05/12 07:46:51;;;;;;;12.38;6.15;;;;;;;;;;4961111;28;92665;-76
2023/05/12 07:49:18;;;;;;;11.43;6.10;;;;;;;;;;4965980;28;96328;-76
2023/05/12 07:51:44;;;;;;;10.05;5.25;;;;;;;;;;4964122;28;92415;-76
2023/05/12 07:54:11;;;;;;;9.55;5.20;;;;;;;;;;4964158;28;92949;-76
2023/05/12 07:56:37;;;;;;;11.73;6.65;;;;;;;;;;4956946;28;96112;-77
2023/05/12 07:59:05;;;;;;;12.07;6.85;;;;;;;;;;4966304;28;92765;-77
2023/05/12 08:01:31;;;;;;;;;;;;;;;;;;4963083;28;92887;-81
2023/05/12 08:03:58;;;;;;;12.55;5.97;;;;;;;;;;4957685;28;95134;-80
2023/05/12 08:06:25;;;;;;;14.43;6.68;;;;;;;;;;4963037;28;92205;-80
2023/05/12 08:08:52;;;;;;;12.57;7.18;;;;;;;;;;4967086;28;92965;-80
2023/05/12 08:11:18;;;;;;;14.43;7.00;;;;;;;;;;4964841;28;94299;-79
2023/05/12 08:13:45;;;;;;;11.48;6.03;;;;;;;;;;4964250;28;94977;-82
2023/05/12 08:16:11;;;;;;;10.95;5.40;;;;;;;;;;4961077;28;93018;-79
2023/05/12 08:18:38;;;;;;;13.40;7.03;;;;;;;;;;4964546;28;92563;-79
2023/05/12 08:21:05;;;;;;;10.45;5.72;;;;;;;;;;4959799;28;92778;-79
2023/05/12 08:23:31;;;;;;;14.05;7.80;;;;;;;;;;4957824;28;93178;-79
2023/05/12 08:25:58;;;;;;;9.35;4.63;;;;;;;;;;4961820;28;92557;-79
2023/05/12 08:28:25;;;;;;;13.18;7.38;;;;;;;;;;4965148;28;93831;-80
2023/05/12 08:30:51;;;;;;;13.07;6.75;;;;;;;;;;4960692;28;93681;-80
2023/05/12 08:33:18;;;;;;;12.07;6.43;;;;;;;;;;4961571;28;93401;-79
2023/05/12 08:35:44;;;;;;;9.20;5.10;;;;;;;;;;4962271;28;95402;-81
2023/05/12 08:38:11;;;;;;;9.85;5.38;;;;;;;;;;4963563;28;96885;-80
2023/05/12 08:40:43;;;;;;;11.98;6.93;;;;;;;;;;4956535;28;95040;-79
2023/05/12 08:43:18;;;;;;;11.90;6.20;;;;;;;;;;4965140;28;93027;-79
2023/05/12 08:45:49;;;;;;;10.05;4.25;;;;;;;;;;4961465;28;93568;-87
2023/05/12 08:48:17;;;;;;;13.43;4.70;;;;;;;;;;4971176;28;92925;-82
2023/05/12 08:50:44;;;;;;;12.35;5.20;;;;;;;;;;4952126;28;93077;-80
2023/05/12 08:53:12;;;;;;;11.25;5.05;;;;;;;;;;4966640;28;92457;-80
2023/05/12 08:55:40;;;;;;;10.45;4.55;;;;;;;;;;4962896;28;92595;-82
2023/05/12 08:58:14;;;;;;;10.52;4.97;;;;;;;;;;4967340;28;93041;-80
2023/05/12 09:00:41;;;;;;;12.38;5.60;;;;;;;;;;4964279;28;92856;-80
2023/05/12 09:03:08;;;;;;;;;;;;;;;;;;4965033;28;94903;-81
2023/05/12 09:05:35;;;;;;;13.20;8.05;;;;;;;;;;4959373;28;92571;-81
2023/05/12 09:08:02;;;;;;;9.43;5.30;;;;;;;;;;4968590;28;93475;-81
2023/05/12 09:10:28;;;;;;;11.73;5.97;;;;;;;;;;4974629;28;94157;-81
2023/05/12 09:13:10;;;;;;;10.82;5.32;;;;;;;;;;4965812;28;92703;-81
2023/05/12 09:15:38;;;;;;;9.57;5.38;;;;;;;;;;4969823;28;94459;-81
2023/05/12 09:18:05;;;;;;;12.27;6.25;;;;;;;;;;4968804;28;93026;-81
2023/05/12 09:20:32;;;;;;;10.82;5.95;;;;;;;;;;4965670;28;92875;-81
2023/05/12 09:22:59;;;;;;;;;;;;;;;;;;4963296;28;95672;-81
2023/05/12 09:25:26;;;;;;;10.23;5.60;;;;;;;;;;4965900;28;92831;-81
2023/05/12 09:27:53;;;;;;;9.93;5.38;;;;;;;;;;4947514;28;96178;-81
2023/05/12 09:30:30;;;;;;;11.27;6.30;;;;;;;;;;4966355;28;93549;-82
2023/05/12 09:33:10;;;;;;;10.40;5.90;;;;;;;;;;4963484;28;92737;-81
2023/05/12 09:35:37;;;;;;;10.02;4.93;;;;;;;;;;4959397;28;93476;-81
2023/05/12 09:38:08;;;;;;;11.23;5.47;;;;;;;;;;4967145;28;94407;-80
2023/05/12 09:40:35;;;;;;;10.30;5.43;;;;;;;;;;4962151;28;94105;-80
2023/05/12 09:43:04;;;;;;;9.48;4.95;;;;;;;;;;4967087;28;92926;-81
2023/05/12 09:45:34;;;;;;;8.98;4.70;;;;;;;;;;4965631;28;92254;-81
2023/05/12 09:48:07;;;;;;;10.38;4.93;;;;;;;;;;4966147;28;92494;-80
2023/05/12 09:50:33;;;;;;;7.97;3.75;;;;;;;;;;4964747;28;93142;-81
2023/05/12 09:53:13;;;;;;;9.40;5.18;;;;;;;;;;4960211;28;95652;-83
2023/05/12 09:55:43;;;;;;;9.45;5.05;;;;;;;;;;4962755;28;96444;-80
2023/05/12 09:58:10;;;;;;;9.25;5.05;;;;;;;;;;4960287;28;95782;-80
2023/05/12 10:00:38;;;;;;;8.65;4.50;;;;;;;;;;4967785;28;92750;-81
2023/05/12 10:03:25;;;;;;;9.98;4.60;;;;;;;;;;4955806;28;93326;-80
2023/05/12 10:05:56;;;;;;;10.15;4.93;;;;;;;;;;4966043;28;93067;-79
2023/05/12 10:08:25;;;;;;;8.10;4.00;;;;;;;;;;4957583;28;98797;-80
2023/05/12 10:10:52;;;;;;;7.47;3.75;;;;;;;;;;4963260;28;96754;-81
2023/05/12 10:13:19;;;;;;;7.50;3.97;;;;;;;;;;4964325;28;92722;-80
2023/05/12 10:15:47;;;;;;;8.10;4.45;;;;;;;;;;4954360;28;93873;-81
2023/05/12 10:18:14;;;;;;;8.57;4.28;;;;;;;;;;4964173;28;98219;-80
2023/05/12 10:20:42;;;;;;;8.13;4.63;;;;;;;;;;4962036;28;92891;-81
2023/05/12 10:23:11;;;;;;;10.15;5.00;;;;;;;;;;4964242;28;94045;-80
2023/05/12 10:25:41;;;;;;;7.45;3.78;;;;;;;;;;4965029;28;92823;-80
2023/05/12 10:28:07;;;;;;;9.30;4.22;;;;;;;;;;4959686;28;93290;-81
2023/05/12 10:30:35;;;;;;;9.30;4.65;;;;;;;;;;4965560;28;93169;-80
2023/05/12 10:33:01;;;;;;;8.10;3.63;;;;;;;;;;4968242;28;92652;-80
2023/05/12 10:35:32;;;;;;;7.18;3.40;;;;;;;;;;4963450;28;94140;-79
2023/05/12 10:38:25;;;;;;;7.30;3.50;;;;;;;;;;4965878;28;92596;-79
2023/05/12 10:40:53;;;;;;;7.50;3.80;;;;;;;;;;4953875;28;92557;-79
2023/05/12 10:43:23;;;;;;;6.50;3.33;;;;;;;;;;4960313;28;94942;-81
2023/05/12 10:46:10;;;;;;;5.55;2.88;;;;;;;;;;4949003;28;92944;-80
2023/05/12 10:48:53;;;;;;;8.23;4.20;;;;;;;;;;4969515;28;92754;-81
2023/05/12 10:51:22;;;;;;;7.10;3.45;;;;;;;;;;4962866;28;93072;-80
2023/05/12 10:53:52;;;;;;;5.80;3.20;;;;;;;;;;4963885;28;92937;-80
2023/05/12 10:56:22;;;;;;;7.03;3.00;;;;;;;;;;4949377;28;92638;-81
2023/05/12 10:59:08;;;;;;;6.88;2.92;;;;;;;;;;4965850;28;98554;-78
2023/05/12 11:01:39;;;;;;;5.68;2.67;;;;;;;;;;4965882;28;93985;-80
2023/05/12 11:04:10;;;;;;;6.55;2.90;;;;;;;;;;4953495;28;92698;-79
2023/05/12 11:06:38;;;;;;;6.65;3.20;;;;;;;;;;4962844;28;93235;-79
2023/05/12 11:09:06;;;;;;;7.88;3.15;;;;;;;;;;4960030;28;96601;-79
2023/05/12 11:11:34;;;;;;;6.00;2.83;;;;;;;;;;4957771;28;93497;-80
2023/05/12 11:14:01;;;;;;;;;;;;;;;;;;4957237;28;92966;-80
2023/05/12 11:16:28;;;;;;;8.80;2.80;;;;;;;;;;4934522;28;103587;-82
2023/05/12 11:19:02;;;;;;;4.68;2.30;;;;;;;;;;4968253;28;93199;-81
2023/05/12 11:21:30;;;;;;;6.88;2.58;;;;;;;;;;4962250;28;93044;-81
2023/05/12 11:23:58;;;;;;;4.38;2.35;;;;;;;;;;4950426;28;94370;-81
2023/05/12 11:26:25;;;;;;;5.97;2.35;;;;;;;;;;4960968;28;92351;-80
2023/05/12 11:28:52;;;;;;;6.13;2.83;;;;;;;;;;4963159;28;92945;-80
2023/05/12 11:31:20;;;;;;;4.85;2.38;;;;;;;;;;4967903;28;93645;-80
2023/05/12 11:33:46;;;;;;;;;;;;;;;;;;4967301;28;95128;-79
2023/05/12 11:36:14;;;;;;;5.32;2.50;;;;;;;;;;4971271;28;107352;-79
2023/05/12 11:38:47;;;;;;;4.80;2.17;;;;;;;;;;4948029;28;96188;-79
2023/05/12 11:41:20;;;;;;;5.22;2.38;;;;;;;;;;4942141;28;92825;-80
2023/05/12 11:43:47;;;;;;;4.53;2.20;;;;;;;;;;4942050;28;93286;-81
2023/05/12 11:46:22;;;;;;;5.50;2.30;;;;;;;;;;4945744;28;94446;-80
2023/05/12 11:48:53;;;;;;;3.97;2.20;;;;;;;;;;4953529;28;93485;-82
2023/05/12 11:51:21;;;;;;;;;;;;;;;;;;4947267;28;93777;-80
2023/05/12 11:53:49;;;;;;;4.85;2.25;;;;;;;;;;4958407;28;95181;-81
2023/05/12 11:56:20;;;;;;;4.75;2.10;;;;;;;;;;4963987;28;94136;-80
2023/05/12 11:58:52;;;;;;;4.40;2.30;;;;;;;;;;4954734;28;95837;-81
2023/05/12 12:01:19;;;;;;;4.28;2.20;;;;;;;;;;4941579;28;92877;-80
2023/05/12 12:03:47;;;;;;;4.97;2.50;;;;;;;;;;4958157;28;93012;-80
2023/05/12 12:06:14;;;;;;;4.65;2.20;;;;;;;;;;4958784;28;94387;-80
2023/05/12 12:08:57;;;;;;;4.93;2.63;;;;;;;;;;4947301;28;92729;-79
2023/05/12 12:11:25;;;;;;;6.60;3.15;;;;;;;;;;4935604;28;100491;-80
2023/05/12 12:13:56;;;;;;;4.80;2.63;;;;;;;;;;4949276;28;93339;-80
2023/05/12 12:16:24;;;;;;;6.13;2.63;;;;;;;;;;4943251;28;95162;-80
2023/05/12 12:18:51;;;;;;;5.63;2.60;;;;;;;;;;4947025;28;98018;-80
2023/05/12 12:21:17;;;;;;;4.68;2.40;;;;;;;;;;4945538;28;92939;-80
2023/05/12 12:23:44;;;;;;;5.72;2.78;;;;;;;;;;4944935;28;95018;-80
2023/05/12 12:26:20;;;;;;;4.60;2.53;;;;;;;;;;4944044;28;93372;-79
2023/05/12 12:28:47;;;;;;;4.60;2.30;;;;;;;;;;4946848;28;93044;-80
2023/05/12 12:31:14;;;;;;;5.78;2.92;;;;;;;;;;4944663;28;92773;-80
2023/05/12 12:33:41;;;;;;;6.03;2.63;;;;;;;;;;4945652;28;93201;-79
2023/05/12 12:36:08;;;;;;;6.43;3.00;;;;;;;;;;4953722;28;94636;-79
2023/05/12 12:38:34;;;;;;;7.40;3.33;;;;;;;;;;4946025;28;93350;-80
2023/05/12 12:41:01;;;;;;;4.30;2.35;;;;;;;;;;4943007;28;92405;-79
2023/05/12 12:43:27;;;;;;;4.70;2.60;;;;;;;;;;4943515;28;94796;-80
2023/05/12 12:45:54;;;;;;;4.20;2.30;;;;;;;;;;4945087;28;93241;-79
2023/05/12 12:48:20;;;;;;;5.55;2.90;;;;;;;;;;4943373;28;95576;-79
2023/05/12 12:50:47;;;;;;;6.28;2.80;;;;;;;;;;4943762;28;95186;-79
2023/05/12 12:53:14;;;;;;;7.03;2.63;;;;;;;;;;4945488;28;93758;-80
2023/05/12 12:55:40;;;;;;;4.32;2.40;;;;;;;;;;4947801;28;93792;-79
2023/05/12 12:58:07;;;;;;;5.70;3.00;;;;;;;;;;4938027;28;93074;-79
2023/05/12 13:00:35;;;;;;;7.40;3.70;;;;;;;;;;4943775;28;92593;-79
2023/05/12 13:03:01;;;;;;;;;;;;;;;;;;4946811;28;92945;-79
2023/05/12 13:05:28;;;;;;;6.45;3.03;;;;;;;;;;4916302;28;122407;-80
2023/05/12 13:07:55;;;;;;;5.85;2.60;;;;;;;;;;4955499;28;92748;-79
2023/05/12 13:10:22;;;;;;;4.75;2.40;;;;;;;;;;4947188;28;92751;-79
2023/05/12 13:12:49;;;;;;;5.38;2.70;;;;;;;;;;4959084;28;100305;-79
2023/05/12 13:15:17;;;;;;;5.00;2.63;;;;;;;;;;4960975;28;92643;-80
2023/05/12 13:17:45;;;;;;;6.90;2.42;;;;;;;;;;4967357;28;92734;-79
2023/05/12 13:20:12;;;;;;;5.60;2.72;;;;;;;;;;4961001;28;92564;-79
2023/05/12 13:22:40;;;;;;;6.63;2.85;;;;;;;;;;4963220;28;93178;-79
2023/05/12 13:25:06;;;;;;;;;;;;;;;;;;4963622;28;92973;-80
2023/05/12 13:27:33;;;;;;;5.13;2.65;;;;;;;;;;4956394;28;108262;-80
2023/05/12 13:30:03;;;;;;;5.95;2.80;;;;;;;;;;4967282;28;92763;-80
2023/05/12 13:32:30;;;;;;;5.70;2.88;;;;;;;;;;4956272;28;96222;-79
2023/05/12 13:34:56;;;;;;;7.03;3.53;;;;;;;;;;4944978;28;92541;-79
2023/05/12 13:37:23;;;;;;;6.13;3.13;;;;;;;;;;4942738;28;95400;-79
2023/05/12 13:39:50;;;;;;;6.30;2.90;;;;;;;;;;4943599;28;94289;-79
2023/05/12 13:42:16;;;;;;;6.25;3.42;;;;;;;;;;4939983;28;92736;-79
2023/05/12 13:44:43;;;;;;;6.05;3.03;;;;;;;;;;4945489;28;93146;-79
2023/05/12 13:47:09;;;;;;;6.38;2.80;;;;;;;;;;4947529;28;93122;-80
2023/05/12 13:49:36;;;;;;;6.35;2.90;;;;;;;;;;4947575;28;93001;-79
2023/05/12 13:52:03;;;;;;;5.68;3.00;;;;;;;;;;4947951;28;93821;-80
2023/05/12 13:54:30;;;;;;;7.60;3.17;;;;;;;;;;4948662;28;92840;-80
2023/05/12 13:56:57;;;;;;;6.68;2.92;;;;;;;;;;4948160;28;92473;-79
2023/05/12 13:59:24;;;;;;;6.30;3.10;;;;;;;;;;4950186;28;93178;-79
2023/05/12 14:01:50;;;;;;;9.40;3.13;;;;;;;;;;4950866;28;95493;-79
2023/05/12 14:04:17;;;;;;;5.78;3.00;;;;;;;;;;4949281;28;93560;-79
2023/05/12 14:06:44;;;;;;;6.30;2.72;;;;;;;;;;4949055;28;94492;-81
2023/05/12 14:09:11;;;;;;;7.65;3.88;;;;;;;;;;4950148;28;92624;-80
2023/05/12 14:11:37;;;;;;;6.32;3.55;;;;;;;;;;4948294;28;92534;-80
2023/05/12 14:14:05;;;;;;;9.63;3.15;;;;;;;;;;4951173;28;92518;-80
2023/05/12 14:16:31;;;;;;;7.13;2.97;;;;;;;;;;4946516;28;94774;-80
2023/05/12 14:19:01;;;;;;;6.38;3.28;;;;;;;;;;4949496;28;91971;-80
2023/05/12 14:21:28;;;;;;;6.50;2.83;;;;;;;;;;4948906;28;92653;-80
2023/05/12 14:23:56;;;;;;;8.38;2.97;;;;;;;;;;4952896;28;92982;-80
2023/05/12 14:26:24;;;;;;;8.02;3.40;;;;;;;;;;4947093;28;98429;-81
2023/05/12 14:28:50;;;;;;;5.68;2.85;;;;;;;;;;4973664;28;99771;-81
2023/05/12 14:31:19;;;;;;;4.82;2.55;;;;;;;;;;4975796;28;92873;-80
2023/05/12 14:33:46;;;;;;;6.30;3.38;;;;;;;;;;4970444;28;92468;-81
2023/05/12 14:36:12;;;;;;;6.70;3.10;;;;;;;;;;4968453;28;92925;-81
2023/05/12 14:38:39;;;;;;;5.47;3.05;;;;;;;;;;4983018;28;92541;-81
2023/05/12 14:41:07;;;;;;;6.30;3.17;;;;;;;;;;4971788;28;92421;-81
2023/05/12 14:43:33;;;;;;;5.75;2.90;;;;;;;;;;4974439;28;91923;-81
2023/05/12 14:46:00;;;;;;;7.28;3.30;;;;;;;;;;4977284;28;94121;-81